Terminal Aerodrome Forecast
Issued by NWS Brownsville, TX

Home | Current Version | Previous Version | Text Only | Print | Product List | Glossary On
Versions: 1 2 3 4 5 6 7 8 9 10 11 12 13 14 15 16 17 18 19 20 21
000
FTUS44 KBRO 290500
TAFMFE
TAF
KMFE 290522Z 2906/3006 15006KT P6SM SKC
     FM291000 16007KT 4SM BR SCT005
     FM291500 16018G24KT P6SM SCT030
     FM300100 15010KT P6SM SKC=

USA.gov is the U.S. government's official web portal to all federal, state and local government web resources and services.